createdAt,value
2022-11-28T00:01:20.583Z,9.00
2022-11-28T00:03:47.719Z,9.25
2022-11-28T00:06:14.827Z,7.80
2022-11-28T00:08:41.809Z,8.77
2022-11-28T00:11:10.548Z,9.30
2022-11-28T00:13:37.798Z,9.48
2022-11-28T00:16:07.134Z,9.73
2022-11-28T00:18:33.992Z,9.38
2022-11-28T00:21:07.680Z,10.15
2022-11-28T00:23:35.264Z,9.63
2022-11-28T00:26:08.320Z,9.13
2022-11-28T00:28:35.191Z,10.25
2022-11-28T00:31:02.163Z,9.70
2022-11-28T00:33:29.019Z,9.55
2022-11-28T00:36:04.185Z,9.73
2022-11-28T00:38:31.316Z,10.43
2022-11-28T00:41:02.465Z,10.10
2022-11-28T00:43:29.491Z,8.80
2022-11-28T00:45:56.811Z,9.18
2022-11-28T00:48:24.429Z,9.98
2022-11-28T00:50:51.931Z,9.70
2022-11-28T00:53:18.703Z,9.73
2022-11-28T00:55:45.482Z,9.60
2022-11-28T00:58:12.217Z,10.60
2022-11-28T01:00:39.318Z,10.10
2022-11-28T01:03:06.240Z,10.13
2022-11-28T01:05:33.018Z,9.43
2022-11-28T01:07:59.839Z,10.20
2022-11-28T01:10:27.217Z,10.40
2022-11-28T01:12:54.063Z,10.57
2022-11-28T01:15:20.928Z,10.48
2022-11-28T01:17:47.739Z,10.73
2022-11-28T01:20:14.964Z,11.23
2022-11-28T01:22:41.828Z,11.50
2022-11-28T01:25:08.727Z,11.98
2022-11-28T01:27:35.494Z,11.05
2022-11-28T01:30:02.280Z,11.93
2022-11-28T01:32:29.077Z,11.48
2022-11-28T01:34:55.796Z,12.48
2022-11-28T01:37:22.553Z,11.90
2022-11-28T01:39:49.293Z,12.15
2022-11-28T01:42:20.265Z,12.02
2022-11-28T01:44:49.990Z,12.05
2022-11-28T01:47:22.260Z,12.07
2022-11-28T01:49:50.684Z,12.00
2022-11-28T01:52:20.318Z,12.45
2022-11-28T01:54:55.097Z,12.00
2022-11-28T01:57:24.828Z,13.30
2022-11-28T02:00:03.028Z,12.25
2022-11-28T02:02:35.691Z,12.18
2022-11-28T02:05:02.660Z,12.32
2022-11-28T02:07:29.519Z,12.38
2022-11-28T02:09:57.062Z,13.02
2022-11-28T02:12:50.106Z,12.82
2022-11-28T02:15:38.062Z,13.80
2022-11-28T02:18:27.681Z,12.10
2022-11-28T02:21:00.451Z,12.18
2022-11-28T02:23:56.612Z,13.45
2022-11-28T02:27:18.754Z,11.35
2022-11-28T02:30:06.837Z,11.65
2022-11-28T02:32:56.788Z,11.30
2022-11-28T02:35:34.535Z,11.38
2022-11-28T02:38:30.316Z,10.43
2022-11-28T02:41:31.159Z,11.48
2022-11-28T02:44:17.926Z,11.25
2022-11-28T02:46:58.586Z,10.70
2022-11-28T02:49:45.112Z,11.60
2022-11-28T02:52:40.965Z,10.57
2022-11-28T02:55:09.004Z,11.68
2022-11-28T02:57:38.441Z,10.70
2022-11-28T03:00:43.695Z,11.50
2022-11-28T03:03:54.678Z,11.25
2022-11-28T03:06:21.421Z,10.00
2022-11-28T03:09:18.553Z,10.68
2022-11-28T03:12:10.117Z,9.80
2022-11-28T03:15:02.056Z,10.13
2022-11-28T03:17:53.096Z,10.85
2022-11-28T03:20:44.317Z,11.20
2022-11-28T03:23:11.233Z,11.10
2022-11-28T03:25:58.271Z,11.23
2022-11-28T03:28:43.214Z,10.13
2022-11-28T03:31:12.880Z,10.25
2022-11-28T03:33:44.733Z,10.35
2022-11-28T03:36:22.237Z,10.40
2022-11-28T03:38:54.222Z,10.35
2022-11-28T03:41:43.059Z,10.85
2022-11-28T03:44:18.366Z,10.13
2022-11-28T03:46:49.618Z,10.88
2022-11-28T03:49:24.866Z,10.27
2022-11-28T03:52:06.711Z,12.40
2022-11-28T03:54:40.519Z,12.18
2022-11-28T03:57:24.040Z,11.55
2022-11-28T03:59:54.086Z,11.13
2022-11-28T04:02:39.950Z,11.77
2022-11-28T04:05:32.242Z,11.85
2022-11-28T04:08:11.540Z,11.05
2022-11-28T04:10:44.759Z,10.98
2022-11-28T04:13:21.527Z,11.13
2022-11-28T04:16:06.983Z,11.15
2022-11-28T04:18:48.752Z,11.32
2022-11-28T04:21:20.587Z,10.93
2022-11-28T04:23:49.832Z,10.30
2022-11-28T04:26:27.199Z,11.02
2022-11-28T04:28:57.355Z,10.85
2022-11-28T04:31:26.030Z,11.45
2022-11-28T04:33:58.444Z,11.85
2022-11-28T04:36:27.031Z,11.90
2022-11-28T04:38:57.404Z,11.88
2022-11-28T04:41:35.811Z,11.85
2022-11-28T04:44:44.384Z,11.73
2022-11-28T04:47:11.783Z,11.48
2022-11-28T04:49:39.242Z,11.75
2022-11-28T04:52:23.218Z,11.77
2022-11-28T04:54:56.134Z,12.20
2022-11-28T04:59:50.846Z,12.38
2022-11-28T05:02:19.517Z,12.70
2022-11-28T05:04:46.381Z,12.85
2022-11-28T05:07:13.675Z,12.45
2022-11-28T05:09:40.621Z,11.68
2022-11-28T05:12:07.861Z,11.98
2022-11-28T05:14:34.656Z,12.02
2022-11-28T05:17:01.520Z,12.35
2022-11-28T05:19:28.281Z,12.18
2022-11-28T05:21:55.027Z,12.13
2022-11-28T05:24:22.553Z,11.57
2022-11-28T05:26:49.694Z,11.52
2022-11-28T05:29:16.860Z,12.93
2022-11-28T05:31:43.637Z,13.25
2022-11-28T05:34:10.462Z,12.43
2022-11-28T05:36:37.153Z,12.98
2022-11-28T05:39:03.981Z,11.85
2022-11-28T05:41:32.259Z,13.18
2022-11-28T05:44:00.408Z,12.63
2022-11-28T05:46:29.172Z,12.35
2022-11-28T05:48:57.057Z,11.52
2022-11-28T05:51:24.173Z,12.25
2022-11-28T05:53:51.165Z,11.90
2022-11-28T05:56:19.754Z,11.93
2022-11-28T05:58:46.892Z,10.77
2022-11-28T06:01:14.829Z,11.50
2022-11-28T06:03:42.553Z,12.20
2022-11-28T06:06:13.863Z,11.55
2022-11-28T06:08:41.235Z,12.25
2022-11-28T06:11:08.810Z,12.20
2022-11-28T06:13:35.885Z,11.15
2022-11-28T06:16:03.343Z,12.60
2022-11-28T06:18:30.171Z,12.73
2022-11-28T06:20:56.933Z,14.07
2022-11-28T06:23:24.271Z,12.38
2022-11-28T06:25:51.045Z,12.20
2022-11-28T06:28:17.813Z,12.57
2022-11-28T06:30:44.640Z,12.43
2022-11-28T06:33:11.520Z,13.00
2022-11-28T06:35:38.241Z,13.20
2022-11-28T06:38:05.794Z,13.88
2022-11-28T06:40:34.658Z,12.73
2022-11-28T06:43:01.387Z,13.95
2022-11-28T06:45:28.190Z,14.13
2022-11-28T06:47:54.980Z,12.93
2022-11-28T06:50:21.682Z,13.93
2022-11-28T06:52:48.456Z,14.98
2022-11-28T06:55:15.343Z,14.85
2022-11-28T06:57:42.116Z,15.27
2022-11-28T07:00:09.325Z,15.23
2022-11-28T07:02:36.076Z,14.52
2022-11-28T07:05:02.895Z,14.48
2022-11-28T07:07:29.691Z,14.90
2022-11-28T07:09:56.433Z,13.98
2022-11-28T07:12:23.316Z,13.65
2022-11-28T07:14:50.104Z,13.95
2022-11-28T07:17:17.175Z,14.20
2022-11-28T07:19:44.342Z,13.77
2022-11-28T07:22:11.868Z,12.65
2022-11-28T07:24:38.659Z,12.70
2022-11-28T07:27:05.377Z,12.43
2022-11-28T07:29:36.458Z,13.93
2022-11-28T07:32:05.808Z,13.25
2022-11-28T07:34:33.249Z,13.00
2022-11-28T07:37:00.164Z,13.52
2022-11-28T07:39:27.451Z,13.95
2022-11-28T07:41:54.168Z,13.73
2022-11-28T07:44:20.881Z,13.15
2022-11-28T07:46:47.861Z,13.50
2022-11-28T07:49:15.200Z,14.10
2022-11-28T07:51:42.375Z,13.18
2022-11-28T07:54:09.566Z,13.02
2022-11-28T07:57:11.647Z,14.25
2022-11-28T07:59:24.858Z,14.90
2022-11-28T08:01:53.690Z,14.77
2022-11-28T08:04:21.055Z,14.32
2022-11-28T08:06:47.975Z,15.15
2022-11-28T08:09:14.831Z,13.85
2022-11-28T08:11:41.916Z,13.70
2022-11-28T08:14:09.251Z,14.43
2022-11-28T08:16:36.890Z,12.48
2022-11-28T08:19:03.847Z,13.73
2022-11-28T08:21:32.409Z,13.82
2022-11-28T08:24:01.007Z,14.38
2022-11-28T08:26:30.636Z,13.48
2022-11-28T08:28:58.949Z,14.25
2022-11-28T08:31:32.001Z,14.13
2022-11-28T08:34:01.013Z,13.52
2022-11-28T08:36:29.295Z,15.05
2022-11-28T08:39:16.513Z,13.32
2022-11-28T08:41:43.569Z,13.75
2022-11-28T08:44:10.387Z,14.05
2022-11-28T08:46:37.134Z,14.95
2022-11-28T08:49:04.699Z,14.13
2022-11-28T08:51:32.077Z,13.13
2022-11-28T08:53:59.948Z,14.13
2022-11-28T08:56:27.454Z,13.77
2022-11-28T08:58:55.182Z,13.48
2022-11-28T09:01:25.294Z,13.60
2022-11-28T09:03:53.326Z,13.20
2022-11-28T09:06:21.718Z,14.02
2022-11-28T09:08:49.996Z,12.93
2022-11-28T09:11:18.925Z,13.65
2022-11-28T09:13:46.120Z,13.02
2022-11-28T09:16:14.449Z,12.38
2022-11-28T09:18:41.494Z,12.40
2022-11-28T09:21:11.958Z,12.10
2022-11-28T09:23:41.081Z,12.23
2022-11-28T09:26:19.746Z,13.20
2022-11-28T09:28:47.613Z,11.63
2022-11-28T09:31:15.943Z,11.93
2022-11-28T09:33:43.641Z,12.77
2022-11-28T09:36:17.094Z,12.23
2022-11-28T09:38:44.250Z,12.68
2022-11-28T09:41:41.073Z,12.93
2022-11-28T09:44:13.710Z,11.68
2022-11-28T09:46:41.611Z,11.70
2022-11-28T09:49:40.792Z,11.00
2022-11-28T09:52:17.022Z,11.27
2022-11-28T09:54:47.141Z,10.75
2022-11-28T09:57:29.789Z,10.90
2022-11-28T09:59:56.551Z,10.68
2022-11-28T10:02:39.281Z,10.52
2022-11-28T10:05:17.051Z,10.40
2022-11-28T10:08:10.324Z,10.60
2022-11-28T10:11:00.111Z,10.55
2022-11-28T10:14:07.749Z,9.88
2022-11-28T10:17:09.991Z,10.07
2022-11-28T10:19:54.226Z,10.23
2022-11-28T10:22:42.078Z,11.43
2022-11-28T10:25:17.321Z,10.43
2022-11-28T10:27:44.334Z,11.68
2022-11-28T10:30:26.374Z,10.93
2022-11-28T10:33:25.251Z,10.85
2022-11-28T10:36:03.209Z,11.45
2022-11-28T10:38:34.129Z,12.10
2022-11-28T10:41:34.576Z,11.93
2022-11-28T10:44:15.808Z,12.75
2022-11-28T10:47:10.628Z,12.02
2022-11-28T10:50:13.856Z,12.38
2022-11-28T10:52:53.801Z,12.35
2022-11-28T10:55:40.998Z,13.35
2022-11-28T10:58:16.533Z,14.82
2022-11-28T11:00:45.522Z,13.57
2022-11-28T11:03:16.201Z,13.32
2022-11-28T11:05:43.370Z,13.27
2022-11-28T11:08:23.558Z,13.82
2022-11-28T11:10:54.894Z,13.25
2022-11-28T11:13:27.326Z,12.35
2022-11-28T11:16:05.090Z,14.50
2022-11-28T11:18:42.712Z,13.70
2022-11-28T11:21:27.959Z,13.55
2022-11-28T11:24:17.260Z,14.35
2022-11-28T11:26:47.661Z,13.65
2022-11-28T11:29:35.343Z,14.15
2022-11-28T11:32:06.113Z,13.00
2022-11-28T11:34:44.136Z,13.70
2022-11-28T11:37:28.927Z,13.85
2022-11-28T11:39:55.687Z,13.93
2022-11-28T11:42:27.981Z,13.68
2022-11-28T11:44:55.582Z,13.32
2022-11-28T11:47:41.949Z,13.18
2022-11-28T11:50:20.394Z,13.90
2022-11-28T11:53:12.608Z,12.00
2022-11-28T11:55:49.478Z,13.05
2022-11-28T11:58:21.768Z,11.90
2022-11-28T12:00:48.686Z,11.70
2022-11-28T12:03:25.704Z,11.73
2022-11-28T12:06:14.246Z,11.23
2022-11-28T12:08:53.800Z,10.55
2022-11-28T12:11:45.473Z,11.95
2022-11-28T12:14:33.050Z,10.85
2022-11-28T12:17:48.642Z,11.32
2022-11-28T12:20:35.010Z,11.32
2022-11-28T12:23:07.490Z,12.48
2022-11-28T12:25:44.360Z,11.40
2022-11-28T12:28:59.641Z,11.80
2022-11-28T12:31:50.266Z,12.30
2022-11-28T12:34:38.887Z,13.00
2022-11-28T12:37:37.325Z,12.63
2022-11-28T12:40:28.737Z,11.88
2022-11-28T12:43:21.313Z,12.77
2022-11-28T12:46:12.616Z,12.67
2022-11-28T12:49:17.493Z,11.65
2022-11-28T12:52:38.504Z,11.70
2022-11-28T12:55:08.082Z,10.75
2022-11-28T12:57:38.908Z,12.20
2022-11-28T13:00:18.541Z,11.13
2022-11-28T13:02:51.306Z,12.05
2022-11-28T13:06:16.441Z,11.60
2022-11-28T13:08:55.319Z,12.93
2022-11-28T13:11:40.286Z,11.95
2022-11-28T13:14:34.945Z,11.25
2022-11-28T13:17:22.155Z,11.77
2022-11-28T13:20:07.402Z,12.27
2022-11-28T13:22:39.438Z,11.52
2022-11-28T13:25:50.066Z,11.50
2022-11-28T13:28:47.845Z,11.15
2022-11-28T13:31:38.377Z,11.50
2022-11-28T13:34:11.222Z,11.23
2022-11-28T13:40:05.064Z,11.00
2022-11-28T13:43:06.490Z,11.23
2022-11-28T13:45:39.346Z,11.77
2022-11-28T13:48:57.581Z,11.02
2022-11-28T13:51:28.613Z,11.68
2022-11-28T13:54:19.312Z,12.27
2022-11-28T13:57:07.306Z,12.38
2022-11-28T13:59:34.787Z,11.25
2022-11-28T14:02:05.096Z,10.85
2022-11-28T14:04:32.917Z,11.88
2022-11-28T14:07:04.186Z,12.77
2022-11-28T14:09:33.682Z,12.18
2022-11-28T14:12:27.816Z,11.77
2022-11-28T14:15:18.628Z,14.05
2022-11-28T14:18:48.289Z,12.18
2022-11-28T14:21:11.293Z,12.93
2022-11-28T14:23:40.720Z,14.18
2022-11-28T14:26:24.476Z,13.80
2022-11-28T14:28:51.877Z,14.63
2022-11-28T14:31:38.912Z,15.43
2022-11-28T14:34:25.677Z,16.35
2022-11-28T14:37:21.355Z,14.43
2022-11-28T14:39:49.492Z,14.65
2022-11-28T14:42:36.762Z,14.43
2022-11-28T14:45:24.274Z,14.85
2022-11-28T14:48:28.652Z,13.40
2022-11-28T14:51:01.286Z,12.85
2022-11-28T14:53:44.424Z,12.93
2022-11-28T14:56:28.032Z,12.27
2022-11-28T14:59:01.945Z,13.07
2022-11-28T15:01:45.563Z,12.80
2022-11-28T15:04:37.794Z,13.02
2022-11-28T15:07:15.156Z,12.55
2022-11-28T15:10:01.630Z,13.10
2022-11-28T15:12:45.681Z,12.10
2022-11-28T15:15:14.520Z,12.13
2022-11-28T15:17:43.996Z,11.80
2022-11-28T15:20:36.602Z,13.07
2022-11-28T15:23:03.459Z,12.23
2022-11-28T15:25:37.394Z,12.85
2022-11-28T15:28:14.803Z,12.65
2022-11-28T15:30:53.329Z,15.60
2022-11-28T15:33:21.167Z,12.73
2022-11-28T15:36:01.082Z,13.55
2022-11-28T15:38:29.927Z,13.15
2022-11-28T15:40:57.900Z,13.50
2022-11-28T15:43:25.472Z,13.50
2022-11-28T15:45:58.448Z,13.18
2022-11-28T15:50:55.385Z,12.80
2022-11-28T15:53:22.775Z,13.27
2022-11-28T15:56:19.177Z,13.57
2022-11-28T15:58:51.754Z,12.85
2022-11-28T16:01:22.942Z,13.10
2022-11-28T16:04:07.102Z,13.30
2022-11-28T16:06:39.820Z,12.93
2022-11-28T16:09:23.407Z,13.30
2022-11-28T16:11:52.907Z,13.35
2022-11-28T16:14:43.148Z,13.35
2022-11-28T16:17:18.972Z,12.70
2022-11-28T16:19:46.222Z,12.38
2022-11-28T16:22:19.667Z,13.18
2022-11-28T16:24:49.147Z,13.18
2022-11-28T16:27:37.295Z,13.23
2022-11-28T16:30:42.700Z,13.50
2022-11-28T16:33:57.504Z,13.95
2022-11-28T16:36:37.182Z,12.40
2022-11-28T16:39:12.654Z,13.88
2022-11-28T16:42:00.836Z,15.50
2022-11-28T16:44:28.161Z,14.77
2022-11-28T16:46:57.039Z,12.82
2022-11-28T16:49:40.248Z,12.50
2022-11-28T16:54:52.081Z,14.50
2022-11-28T16:57:20.252Z,15.50
2022-11-28T16:59:48.669Z,14.23
2022-11-28T17:02:21.351Z,14.18
2022-11-28T17:04:49.726Z,16.10
2022-11-28T17:07:23.974Z,15.98
2022-11-28T17:09:50.957Z,15.07
2022-11-28T17:12:25.232Z,14.68
2022-11-28T17:14:52.354Z,14.60
2022-11-28T17:17:23.131Z,14.30
2022-11-28T17:19:50.393Z,14.15
2022-11-28T17:22:20.903Z,15.65
2022-11-28T17:24:49.463Z,15.05
2022-11-28T17:27:16.276Z,14.27
2022-11-28T17:29:43.622Z,13.95
2022-11-28T17:32:14.262Z,13.90
2022-11-28T17:34:43.639Z,14.77
2022-11-28T17:37:10.705Z,15.20
2022-11-28T17:39:38.030Z,15.10
2022-11-28T17:42:06.181Z,15.13
2022-11-28T17:44:36.143Z,15.65
2022-11-28T17:47:03.272Z,15.00
2022-11-28T17:49:33.851Z,14.93
2022-11-28T17:52:00.694Z,14.45
2022-11-28T17:54:27.818Z,13.43
2022-11-28T17:56:54.771Z,14.18
2022-11-28T17:59:23.114Z,16.15
2022-11-28T18:01:50.164Z,15.18
2022-11-28T18:04:17.800Z,13.68
2022-11-28T18:06:45.792Z,14.35
2022-11-28T18:09:13.831Z,14.23
2022-11-28T18:11:41.639Z,15.45
2022-11-28T18:14:08.566Z,16.10
2022-11-28T18:16:40.048Z,16.92
2022-11-28T18:19:07.088Z,17.80
2022-11-28T18:21:33.919Z,17.23
2022-11-28T18:24:00.735Z,16.45
2022-11-28T18:26:27.928Z,16.98
2022-11-28T18:28:55.012Z,17.85
2022-11-28T18:31:27.348Z,15.65
2022-11-28T18:34:00.318Z,16.23
2022-11-28T18:36:30.731Z,16.52
2022-11-28T18:39:03.195Z,15.68
2022-11-28T18:41:30.355Z,18.77
2022-11-28T18:44:02.005Z,17.65
2022-11-28T18:46:29.744Z,17.02
2022-11-28T18:48:57.149Z,18.38
2022-11-28T18:51:32.775Z,19.17
2022-11-28T18:54:01.828Z,17.33
2022-11-28T18:56:29.318Z,16.33
2022-11-28T18:58:57.607Z,16.13
2022-11-28T19:01:30.625Z,15.25
2022-11-28T19:04:09.415Z,16.15
2022-11-28T19:06:37.481Z,15.48
2022-11-28T19:09:06.979Z,16.15
2022-11-28T19:11:34.304Z,16.70
2022-11-28T19:14:01.168Z,16.50
2022-11-28T19:16:35.115Z,17.77
2022-11-28T19:19:02.640Z,16.42
2022-11-28T19:21:32.739Z,16.52
2022-11-28T19:24:00.821Z,15.80
2022-11-28T19:26:29.807Z,16.63
2022-11-28T19:28:57.257Z,16.45
2022-11-28T19:31:29.567Z,17.00
2022-11-28T19:34:01.518Z,21.60
2022-11-28T19:36:34.744Z,19.20
2022-11-28T19:39:02.463Z,17.25
2022-11-28T19:41:30.020Z,18.42
2022-11-28T19:43:57.339Z,17.80
2022-11-28T19:46:24.127Z,17.90
2022-11-28T19:48:51.837Z,16.55
2022-11-28T19:51:19.176Z,18.38
2022-11-28T19:53:45.905Z,17.75
2022-11-28T19:56:18.319Z,16.77
2022-11-28T19:58:46.359Z,16.50
2022-11-28T20:01:23.422Z,17.92
2022-11-28T20:03:51.381Z,19.02
2022-11-28T20:06:19.663Z,17.98
2022-11-28T20:08:46.838Z,20.50
2022-11-28T20:11:16.980Z,17.20
2022-11-28T20:13:44.991Z,18.52
2022-11-28T20:16:13.868Z,16.60
2022-11-28T20:18:42.629Z,17.50
2022-11-28T20:21:15.568Z,17.45
2022-11-28T20:26:15.019Z,18.00
2022-11-28T20:28:44.000Z,18.02
2022-11-28T20:31:38.253Z,20.85
2022-11-28T20:34:06.517Z,19.88
2022-11-28T20:36:33.451Z,19.10
2022-11-28T20:39:00.354Z,19.38
2022-11-28T20:41:28.333Z,17.60
2022-11-28T20:43:55.102Z,17.42
2022-11-28T20:46:28.092Z,17.40
2022-11-28T20:51:27.384Z,18.05
2022-11-28T20:53:54.987Z,19.52
2022-11-28T20:56:24.898Z,18.50
2022-11-28T20:58:51.984Z,18.95
2022-11-28T21:01:21.700Z,19.95
2022-11-28T21:03:48.728Z,20.52
2022-11-28T21:06:15.542Z,18.00
2022-11-28T21:08:42.624Z,17.95
2022-11-28T21:11:43.531Z,19.83
2022-11-28T21:14:05.920Z,18.02
2022-11-28T21:16:34.085Z,17.85
2022-11-28T21:19:07.342Z,18.02
2022-11-28T21:21:35.689Z,17.95
2022-11-28T21:24:06.218Z,19.73
2022-11-28T21:26:39.177Z,18.00
2022-11-28T21:29:09.143Z,17.95
2022-11-28T21:31:39.688Z,17.08
2022-11-28T21:34:06.464Z,19.77
2022-11-28T21:36:33.242Z,17.88
2022-11-28T21:39:01.721Z,18.35
2022-11-28T21:41:30.715Z,16.52
2022-11-28T21:43:58.247Z,16.45
2022-11-28T21:46:26.269Z,16.85
2022-11-28T21:48:53.662Z,17.02
2022-11-28T21:51:23.125Z,17.70
2022-11-28T21:53:50.026Z,19.02
2022-11-28T21:56:17.917Z,18.85
2022-11-28T21:58:44.703Z,19.17
2022-11-28T22:01:13.123Z,19.13
2022-11-28T22:03:40.969Z,17.48
2022-11-28T22:06:23.434Z,17.02
2022-11-28T22:08:51.605Z,16.98
2022-11-28T22:11:19.717Z,14.75
2022-11-28T22:13:47.739Z,15.55
2022-11-28T22:16:20.768Z,15.77
2022-11-28T22:18:48.922Z,15.23
2022-11-28T22:24:03.507Z,16.63
2022-11-28T22:26:30.237Z,16.50
2022-11-28T22:28:58.711Z,16.40
2022-11-28T22:31:25.571Z,14.48
2022-11-28T22:33:52.342Z,14.93
2022-11-28T22:36:20.916Z,14.95
2022-11-28T22:38:53.540Z,15.93
2022-11-28T22:41:28.383Z,16.25
2022-11-28T22:43:57.654Z,14.05
2022-11-28T22:46:24.528Z,14.90
2022-11-28T22:48:52.026Z,15.27
2022-11-28T22:51:21.889Z,14.30
2022-11-28T22:53:52.328Z,15.52
2022-11-28T22:56:19.047Z,15.57
2022-11-28T22:58:45.980Z,16.13
2022-11-28T23:01:18.780Z,15.48
2022-11-28T23:03:46.128Z,14.70
2022-11-28T23:06:15.432Z,14.85
2022-11-28T23:08:42.893Z,14.82
2022-11-28T23:11:13.347Z,15.32
2022-11-28T23:13:41.102Z,15.07
2022-11-28T23:16:10.308Z,14.13
2022-11-28T23:18:37.119Z,14.13
2022-11-28T23:21:04.327Z,14.82
2022-11-28T23:23:32.425Z,14.75
2022-11-28T23:26:07.137Z,13.82
2022-11-28T23:28:35.043Z,13.80
2022-11-28T23:31:30.010Z,13.80
2022-11-28T23:33:57.901Z,14.07
2022-11-28T23:36:30.227Z,13.90
2022-11-28T23:41:26.023Z,14.38
2022-11-28T23:43:52.790Z,12.30
2022-11-28T23:46:20.916Z,12.95
2022-11-28T23:48:47.998Z,12.55
2022-11-28T23:51:16.453Z,11.95
2022-11-28T23:53:43.872Z,12.45
2022-11-28T23:56:37.958Z,10.98
2022-11-28T23:59:07.531Z,10.75
